CheckWX is a tool to help pilots better visualize weather data.  It is not intended as a substitute for an official pre-flight weather briefing.

13:43:34 UTC

PPIT METAR
Nunapitchuk
Nunapitchuk, Alaska, USA
Current

48 mins ago

PPIT 131256Z AUTO 21009KT 10SM 14/ A2980 RMK AO2 SLP094 T0139 TSNO
Observed
Jul-13 @ 12:56 UTC
Wind
  • 210° at 9 KTS
Visibility
10 SM
Cloud Levels
Temperature
14°C / 57°F
Altimeter
29.8" Hg
Pressure
1009.12 hPa
Previous

60 mins ago

PPIT 131244Z AUTO 19009KT 10SM 14/ A2980 RMK AO2 TSNO $
Observed
Jul-13 @ 12:44 UTC
Wind
  • 190° at 9 KTS
Visibility
10 SM
Cloud Levels
Temperature
14°C / 57°F
Altimeter
29.8" Hg
Pressure
1009.12 hPa
Previous

1 hour ago

PPIT 131221Z AUTO 19008KT 10SM OVC004 14/14 A2980 RMK AO2 TSNO
Observed
Jul-13 @ 12:21 UTC
Wind
  • 190° at 8 KTS
Visibility
10 SM
Flight Rules
LIFR
Cloud Levels
  • Overcast at 400' AGL
Temperature
14°C / 57°F
Dewpoint
14°C / 57°F
Humidity
100%
Altimeter
29.8" Hg
Pressure
1009.12 hPa